Bangor (BGR/KBGR)

Map

Destinations

Information

Location
Bangor, Maine
Local Time
23:39 / 11:39 pm
GMT Time
03:39 / 3:39 am
Gates
Unassigned
No FAA reported delays
METAR KBGR 260253Z COR 09008KT 8SM -RA OVC050 12/10 A2988 RMK AO2 RAB0158 SLP116 P0006 60006 T01170100 50004
TAF KBGR 252320Z 2600/2624 10011KT P6SM FEW020 BKN045 OVC070 TEMPO 2601/2603 -RA OVC030 FM260300 08014G22KT 6SM -SHRA OVC015 WS020/07035KT FM260900 05016G26KT 4SM -RA BR OVC007 FM261400 05012KT 2SM RA BR OVC004 FM261800 02012KT P6SM VCSH OVC008